地図

経路データ

SID SEASON NUMBER BASIN SUBBASIN NAME ISO_TIME NATURE LAT LON WMO_WIND WMO_PRES WMO_AGENCY TRACK_TYPE DIST2LAND LANDFALL IFLAG USA_AGENCY USA_ATCF_ID USA_LAT USA_LON USA_RECORD USA_STATUS USA_WIND USA_PRES USA_SSHS USA_R34_NE USA_R34_SE USA_R34_SW USA_R34_NW USA_R50_NE USA_R50_SE USA_R50_SW USA_R50_NW USA_R64_NE USA_R64_SE USA_R64_SW USA_R64_NW USA_POCI USA_ROCI USA_RMW USA_EYE TOKYO_LAT TOKYO_LON TOKYO_GRADE TOKYO_WIND TOKYO_PRES TOKYO_R50_DIR TOKYO_R50_LONG TOKYO_R50_SHORT TOKYO_R30_DIR TOKYO_R30_LONG TOKYO_R30_SHORT TOKYO_LAND CMA_LAT CMA_LON CMA_CAT CMA_WIND CMA_PRES HKO_LAT HKO_LON HKO_CAT HKO_WIND HKO_PRES NEWDELHI_LAT NEWDELHI_LON NEWDELHI_GRADE NEWDELHI_WIND NEWDELHI_PRES NEWDELHI_CI NEWDELHI_DP NEWDELHI_POCI REUNION_LAT REUNION_LON REUNION_TYPE REUNION_WIND REUNION_PRES REUNION_TNUM REUNION_CI REUNION_RMW REUNION_R34_NE REUNION_R34_SE REUNION_R34_SW REUNION_R34_NW REUNION_R50_NE REUNION_R50_SE REUNION_R50_SW REUNION_R50_NW REUNION_R64_NE REUNION_R64_SE REUNION_R64_SW REUNION_R64_NW BOM_LAT BOM_LON BOM_TYPE BOM_WIND BOM_PRES BOM_TNUM BOM_CI BOM_RMW BOM_R34_NE BOM_R34_SE BOM_R34_SW BOM_R34_NW BOM_R50_NE BOM_R50_SE BOM_R50_SW BOM_R50_NW BOM_R64_NE BOM_R64_SE BOM_R64_SW BOM_R64_NW BOM_ROCI BOM_POCI BOM_EYE BOM_POS_METHOD BOM_PRES_METHOD NADI_LAT NADI_LON NADI_CAT NADI_WIND NADI_PRES WELLINGTON_LAT WELLINGTON_LON WELLINGTON_WIND WELLINGTON_PRES DS824_LAT DS824_LON DS824_STAGE DS824_WIND DS824_PRES TD9636_LAT TD9636_LON TD9636_STAGE TD9636_WIND TD9636_PRES TD9635_LAT TD9635_LON TD9635_WIND TD9635_PRES TD9635_ROCI NEUMANN_LAT NEUMANN_LON NEUMANN_CLASS NEUMANN_WIND NEUMANN_PRES MLC_LAT MLC_LON MLC_CLASS MLC_WIND MLC_PRES USA_GUST BOM_GUST BOM_GUST_PER REUNION_GUST REUNION_GUST_PER USA_SEAHGT USA_SEARAD_NE USA_SEARAD_SE USA_SEARAD_SW USA_SEARAD_NW STORM_SPEED STORM_DIR
1943037S11077 1943 14 SI MM NOT_NAMED 1943-02-05 18:00:00 NR -10.6000 77.4000 main 1882 1882 __________O___ -1 -10.6000 77.4000 1 7 256
1943037S11077 1943 14 SI MM NOT_NAMED 1943-02-05 21:00:00 NR -10.6828 77.0515 main 1900 1900 __________P___ -1 -10.6828 77.0515 1 10 256
1943037S11077 1943 14 SI MM NOT_NAMED 1943-02-06 00:00:00 TS -10.8293 76.4618 main 1925 1925 _________OP___ -1 -11.0000 75.8000 TC 25 -10.7724 76.6824 1 12 256
1943037S11077 1943 14 SI MM NOT_NAMED 1943-02-06 03:00:00 TS -10.9640 75.9148 main 1963 1963 _________PP___ -1 -11.1402 75.2001 TC 25 -10.8758 76.2721 1 12 256
1943037S11077 1943 14 SI MM NOT_NAMED 1943-02-06 06:00:00 TS -11.1000 75.3250 reunion main 1993 1993 _____O___OO___ -1 -10.9000 75.6000 99 9.90000 -11.3000 74.6000 TC 25 -11.0000 75.8000 1 12 256
1943037S11077 1943 14 SI MM NOT_NAMED 1943-02-06 09:00:00 TS -11.2615 74.7071 main 2034 2014 _____P___PP___ -1 -11.0239 75.0287 99 -11.4924 74.0000 TC 25 -11.1496 75.2535 1 12 255
1943037S11077 1943 14 SI MM NOT_NAMED 1943-02-06 12:00:00 TS -11.4131 74.1434 main 2005 1947 _____P___OP___ -1 -11.1543 74.4557 99 -11.7000 73.4000 TC 25 -11.3203 74.6525 1 12 255
1943037S11077 1943 14 SI MM NOT_NAMED 1943-02-06 15:00:00 TS -11.5682 73.5658 main 1947 1885 _____P___PP___ -1 -11.2989 73.8796 99 -11.8999 72.7924 TC 25 -11.5058 74.0252 1 12 253
1943037S11077 1943 14 SI MM NOT_NAMED 1943-02-06 18:00:00 TS -11.7551 72.9664 main 1879 1818 _____P___OO___ -1 -11.4652 73.2991 99 -12.1000 72.2000 TC 25 -11.7000 73.4000 1 12 252
1943037S11077 1943 14 SI MM NOT_NAMED 1943-02-06 21:00:00 TS -11.9459 72.3829 main 1818 1751 _____P___PP___ -1 -11.6609 72.7126 99 -12.2924 71.6349 TC 25 -11.8845 72.8014 1 12 250
1943037S11077 1943 14 SI MM NOT_NAMED 1943-02-07 00:00:00 TS -12.1569 71.8102 main 1745 1687 _____P___OP___ -1 -11.8935 72.1185 99 -12.5000 71.1000 TC 25 -12.0773 72.2122 1 12 248
1943037S11077 1943 14 SI MM NOT_NAMED 1943-02-07 03:00:00 TS -12.3982 71.2473 main 1678 1614 _____P___PP___ -1 -12.1707 71.5149 99 -12.7424 70.5850 TC 25 -12.2814 71.6420 1 12 245
1943037S11077 1943 14 SI MM NOT_NAMED 1943-02-07 06:00:00 TS -12.6667 70.7000 reunion main 1614 1556 _____O___OO___ -1 -12.5000 70.9000 99 9.90000 -13.0000 70.1000 TC 25 -12.5000 71.1000 1 12 242
1943037S11077 1943 14 SI MM NOT_NAMED 1943-02-07 09:00:00 TS -12.9463 70.1779 main 1556 1492 _____P___PP___ -1 -12.8854 70.2727 99 -13.2348 69.6572 TC 25 -12.7188 70.6038 1 12 240
1943037S11077 1943 14 SI MM NOT_NAMED 1943-02-07 12:00:00 TS -13.2566 69.6568 main 1486 1413 _____P___OP___ -1 -13.3155 69.6363 99 -13.5000 69.2000 TC 25 -12.9542 70.1341 1 12 238
1943037S11077 1943 14 SI MM NOT_NAMED 1943-02-07 15:00:00 TS -13.6077 69.1085 main 1413 1344 _____P___PP___ -1 -13.7755 68.9955 99 -13.8350 68.6575 TC 25 -13.2125 69.6724 1 13 236
1943037S11077 1943 14 SI MM NOT_NAMED 1943-02-07 18:00:00 TS -13.9834 68.5517 main 1344 1271 _____P___OO___ -1 -14.2503 68.3550 99 -14.2000 68.1000 TC 25 -13.5000 69.2000 1 13 235
1943037S11077 1943 14 SI MM NOT_NAMED 1943-02-07 21:00:00 TS -14.3602 67.9977 main 1265 1202 _____P___PP___ -1 -14.7251 67.7198 99 -14.5423 67.5923 TC 30 -13.8131 68.6811 1 13 234
1943037S11077 1943 14 SI MM NOT_NAMED 1943-02-08 00:00:00 TS -14.7466 67.4483 main 1193 1123 _____P___OP___ -1 -15.1848 67.0953 99 -14.9000 67.1000 TC 35 -14.1550 68.1497 1 13 234
1943037S11077 1943 14 SI MM NOT_NAMED 1943-02-08 03:00:00 TS -15.1421 66.8992 main 1123 1054 _____P___PP___ -1 -15.6147 66.4868 99 -15.2924 66.5924 TC 35 -14.5193 67.6185 1 13 233
1943037S11077 1943 14 SI MM NOT_NAMED 1943-02-08 06:00:00 TS -15.5333 66.3667 reunion main 1054 986 _____O___OO___ -1 -16.0000 65.9000 99 9.90000 -15.7000 66.1000 TC 35 -14.9000 67.1000 2 12 233
1943037S11077 1943 14 SI MM NOT_NAMED 1943-02-08 09:00:00 TS -15.8936 65.8761 main 986 923 _____P___PP___ -1 -16.2920 65.3490 99 -16.0998 65.6572 TC 35 -15.2890 66.6222 2 12 233
1943037S11077 1943 14 SI MM NOT_NAMED 1943-02-08 12:00:00 TS -16.2456 65.3921 main 923 854 _____P___OP___ -1 -16.5452 64.8197 99 -16.5000 65.2000 TC 35 -15.6916 66.1566 2 12 234
1943037S11077 1943 14 SI MM NOT_NAMED 1943-02-08 15:00:00 TS -16.5906 64.8871 main 854 791 _____P___PP___ -1 -16.7660 64.3086 99 -16.9075 64.6649 TC 35 -16.0984 65.6877 2 12 235
1943037S11077 1943 14 SI MM NOT_NAMED 1943-02-08 18:00:00 TS -16.9202 64.3707 main 791 729 _____P___OO___ -1 -16.9605 63.8121 99 -17.3000 64.1000 TC 35 -16.5000 65.2000 2 12 237
1943037S11077 1943 14 SI MM NOT_NAMED 1943-02-08 21:00:00 TS -17.2392 63.8508 main 729 666 _____P___PP___ -1 -17.1350 63.3267 99 -17.6723 63.5499 TC 35 -16.9103 64.6757 2 12 238
1943037S11077 1943 14 SI MM NOT_NAMED 1943-02-09 00:00:00 TS -17.5351 63.3263 main 657 594 _____P___OP___ -1 -17.2957 62.8487 99 -18.0000 63.0000 TC 35 -17.3096 64.1302 2 12 241
1943037S11077 1943 14 SI MM NOT_NAMED 1943-02-09 03:00:00 TS -17.8025 62.8004 main 594 537 _____P___PP___ -1 -17.4486 62.3744 99 -18.2798 62.4573 TC 35 -17.6790 63.5695 2 11 244
1943037S11077 1943 14 SI MM NOT_NAMED 1943-02-09 06:00:00 TS -18.0333 62.2667 reunion main 537 480 _____O___OO___ -1 -17.6000 61.9000 99 9.90000 -18.5000 61.9000 TC 35 -18.0000 63.0000 2 11 247
1943037S11077 1943 14 SI MM NOT_NAMED 1943-02-09 09:00:00 TS -18.2427 61.7239 main 470 413 _____P___PP___ -1 -17.8052 61.4291 99 -18.6649 61.3073 TC 35 -18.2579 62.4353 2 11 249
1943037S11077 1943 14 SI MM NOT_NAMED 1943-02-09 12:00:00 TS -18.4250 61.1756 main 413 356 _____P___OP___ -1 -18.0082 60.9631 99 -18.8000 60.7000 TC 35 -18.4668 61.8638 2 11 251
1943037S11077 1943 14 SI MM NOT_NAMED 1943-02-09 15:00:00 TS -18.5986 60.6275 main 347 290 _____P___PP___ -1 -18.2039 60.4972 99 -18.9498 60.0999 TC 35 -18.6422 61.2855 2 11 252
1943037S11077 1943 14 SI MM NOT_NAMED 1943-02-09 18:00:00 TS -18.7625 60.0755 main 290 231 _____P___OO___ -1 -18.3874 60.0265 99 -19.1000 59.5000 TC 35 -18.8000 60.7000 2 11 253
1943037S11077 1943 14 SI MM NOT_NAMED 1943-02-09 21:00:00 TS -18.9266 59.5059 main 231 176 _____P___PP___ -1 -18.5539 59.5462 99 -19.2574 58.8850 TC 35 -18.9684 60.0866 2 11 254
1943037S11077 1943 14 SI MM NOT_NAMED 1943-02-10 00:00:00 TS -19.0736 58.9404 main 168 124 _____P___OP___ -1 -18.6982 59.0515 99 -19.4000 58.3000 TC 35 -19.1225 59.4697 2 11 256
1943037S11077 1943 14 SI MM NOT_NAMED 1943-02-10 03:00:00 TS -19.1935 58.3943 main 124 91 _____P___PP___ -1 -18.8153 58.5376 99 -19.4998 57.7773 TC 35 -19.2653 58.8679 2 10 257
1943037S11077 1943 14 SI MM NOT_NAMED 1943-02-10 06:00:00 TS -19.3000 57.8667 reunion main 91 78 _____O___OO___ -1 -18.9000 58.0000 99 9.90000 -19.6000 57.3000 TC 35 -19.4000 58.3000 2 10 257
1943037S11077 1943 14 SI MM NOT_NAMED 1943-02-10 09:00:00 TS -19.4158 57.3605 main 78 74 _____P___PP___ -1 -18.9502 57.4230 99 -19.7497 56.8575 TC 35 -19.5473 57.8011 2 10 257
1943037S11077 1943 14 SI MM NOT_NAMED 1943-02-10 12:00:00 TS -19.5181 56.8526 main 91 91 _____P___OP___ -1 -18.9684 56.8229 99 -19.9000 56.4000 TC 35 -19.6860 57.3349 2 10 260
1943037S11077 1943 14 SI MM NOT_NAMED 1943-02-10 15:00:00 TS -19.5982 56.3153 main 137 137 _____P___PP___ -1 -18.9580 56.2045 99 -20.0300 55.8651 TC 35 -19.8067 56.8762 2 10 263
1943037S11077 1943 14 SI MM NOT_NAMED 1943-02-10 18:00:00 TS -19.6408 55.7575 main 156 145 _____P___OO___ -1 -18.9224 55.5725 99 -20.1000 55.3000 TC 35 -19.9000 56.4000 2 10 267
1943037S11077 1943 14 SI MM NOT_NAMED 1943-02-10 21:00:00 TS -19.6611 55.2213 main 145 145 _____P___PP___ -1 -18.8652 54.9315 99 -20.1092 54.8029 TC 50 -20.0089 55.9296 2 11 271
1943037S11077 1943 14 SI MM NOT_NAMED 1943-02-11 00:00:00 TS -19.6241 54.6385 main 172 172 _____P___OP___ -1 -18.7899 54.2860 99 -20.0000 54.2000 TC 65 -20.0822 55.4296 2 12 277
1943037S11077 1943 14 SI MM NOT_NAMED 1943-02-11 03:00:00 TS -19.5117 53.9525 main 215 215 _____P___PP___ -1 -18.7003 53.6407 99 -19.7452 53.3521 TC 65 -20.0896 54.8647 2 14 282
1943037S11077 1943 14 SI MM NOT_NAMED 1943-02-11 06:00:00 TS -19.3333 53.2000 reunion main 289 289 _____O___OO___ -1 -18.6000 53.0000 99 9.90000 -19.4000 52.4000 TC 65 -20.0000 54.2000 4 15 286
1943037S11077 1943 14 SI MM NOT_NAMED 1943-02-11 09:00:00 TS -19.0920 52.3972 main 331 241 _____P___PP___ -1 -18.4880 52.3569 99 -19.0350 51.4698 TC 65 -19.7531 53.3650 4 16 288
1943037S11077 1943 14 SI MM NOT_NAMED 1943-02-11 12:00:00 TS -18.8240 51.5844 main 241 164 _____P___OP___ -1 -18.3593 51.7128 99 -18.7000 50.6000 TC 65 -19.4125 52.4405 4 16 289
1943037S11077 1943 14 SI MM NOT_NAMED 1943-02-11 15:00:00 TS -18.5767 50.8132 main 154 77 _____P___PP___ -1 -18.2203 51.0728 99 -18.4694 49.8705 TC 65 -19.0404 51.4962 4 15 288
1943037S11077 1943 14 SI MM NOT_NAMED 1943-02-11 18:00:00 TS -18.3592 50.0805 main 77 0 _____P___OO___ -1 -18.0775 50.4416 99 -18.3000 49.2000 TC 65 -18.7000 50.6000 4 14 286
1943037S11077 1943 14 SI MM NOT_NAMED 1943-02-11 21:00:00 TS -18.1791 49.3634 main 0 0 _____P___PP___ -1 -17.9374 49.8241 99 -18.1351 48.4626 TC 65 -18.4646 49.8034 4 14 284
1943037S11077 1943 14 SI MM NOT_NAMED 1943-02-12 00:00:00 TS -18.0269 48.6972 main 0 0 _____P___OP___ -1 -17.8067 49.2250 99 -18.0000 47.8000 TC 65 -18.2740 49.0668 4 12 283
1943037S11077 1943 14 SI MM NOT_NAMED 1943-02-12 03:00:00 TS -17.8993 48.1193 main 0 0 _____P___PP___ -1 -17.6920 48.6488 99 -17.8846 47.3127 TC 65 -18.1214 48.3966 4 11 282
1943037S11077 1943 14 SI MM NOT_NAMED 1943-02-12 06:00:00 TS -17.8000 47.6000 reunion main 0 0 _____O___OO___ -1 -17.6000 48.1000 99 9.90000 -17.8000 46.9000 TC 65 -18.0000 47.8000 4 10 280
1943037S11077 1943 14 SI MM NOT_NAMED 1943-02-12 09:00:00 TS -17.7202 47.0902 main 0 0 _____P___PP___ -1 -17.5358 47.5261 99 -17.7423 46.4576 TC 65 -17.8826 47.2869 4 10 278
1943037S11077 1943 14 SI MM NOT_NAMED 1943-02-12 12:00:00 TS -17.6622 46.6040 main 0 0 _____P___OP___ -1 -17.4910 46.9712 99 -17.7000 46.0000 TC 65 -17.7957 46.8408 4 9 277
1943037S11077 1943 14 SI MM NOT_NAMED 1943-02-12 15:00:00 TS -17.6120 46.1250 main 0 0 _____P___PP___ -1 -17.4651 46.4434 99 -17.6349 45.5074 TC 50 -17.7360 46.4242 4 9 275
1943037S11077 1943 14 SI MM NOT_NAMED 1943-02-12 18:00:00 TS -17.5858 45.6503 main 0 0 _____P___OO___ -1 -17.4574 45.9510 99 -17.6000 45.0000 TC 35 -17.7000 46.0000 4 10 272
1943037S11077 1943 14 SI MM NOT_NAMED 1943-02-12 21:00:00 TS -17.5757 45.1147 main 0 0 _____P___PP___ -1 -17.4675 45.5020 99 -17.6127 44.4251 TC 35 -17.6469 45.4170 4 10 269
1943037S11077 1943 14 SI MM NOT_NAMED 1943-02-13 00:00:00 TS -17.6046 44.6468 main 0 0 _____P___OP___ -1 -17.4949 45.1050 99 -17.7000 44.0000 TC 35 -17.6188 44.8353 4 8 262
1943037S11077 1943 14 SI MM NOT_NAMED 1943-02-13 03:00:00 TS -17.6825 44.3330 main 0 0 _____P___PP___ -1 -17.5392 44.7682 99 -17.8773 43.8950 TC 35 -17.6311 44.3359 4 5 247
1943037S11077 1943 14 SI MM NOT_NAMED 1943-02-13 06:00:00 TS -17.8000 44.1667 reunion main 0 0 _____O___OO___ -1 -17.6000 44.5000 99 9.90000 -18.1000 44.0000 TC 35 -17.7000 44.0000 2 3 217
1943037S11077 1943 14 SI MM NOT_NAMED 1943-02-13 09:00:00 TS -17.9511 44.1185 main 0 0 _____P___PP___ -1 -17.6595 44.2823 99 -18.3150 44.1624 TC 35 -17.8579 43.8990 2 3 0
1943037S11077 1943 14 SI MM NOT_NAMED 1943-02-13 12:00:00 TS -18.1170 44.1748 main 0 0 _____P___OP___ -1 -17.7373 44.1319 99 -18.5000 44.4000 TC 35 -18.0690 43.9672 2 4 153
1943037S11077 1943 14 SI MM NOT_NAMED 1943-02-13 15:00:00 TS -18.2698 44.2891 main 0 0 _____P___PP___ -1 -17.8320 44.0426 99 -18.6150 44.6351 TC 30 -18.2957 44.1519 2 4 138
1943037S11077 1943 14 SI MM NOT_NAMED 1943-02-13 18:00:00 TS -18.4081 44.4517 main 0 0 _____P___OO___ -1 -17.9419 44.0084 99 -18.7000 44.9000 TC 25 -18.5000 44.4000 2 4 129
1943037S11077 1943 14 SI MM NOT_NAMED 1943-02-13 21:00:00 TS -18.5274 44.6197 main 0 0 _____P___PP___ -1 -18.0654 44.0230 99 -18.7999 45.1776 TC 25 -18.6287 44.6086 2 4 122
1943037S11077 1943 14 SI MM NOT_NAMED 1943-02-14 00:00:00 TS -18.6366 44.8311 main 0 0 _____P___OP___ -1 -18.2007 44.0806 99 -18.9000 45.5000 TC 25 -18.7299 44.8677 2 5 115
1943037S11077 1943 14 SI MM NOT_NAMED 1943-02-14 03:00:00 TS -18.7378 45.0882 main 0 0 _____P___PP___ -1 -18.3461 44.1749 99 -19.0000 45.8925 TC 25 -18.8161 45.1680 2 5 111
1943037S11077 1943 14 SI MM NOT_NAMED 1943-02-14 06:00:00 TS -18.8333 45.3667 reunion main 0 0 _____O___OO___ -1 -18.5000 44.3000 99 9.90000 -19.1000 46.3000 TC 25 -18.9000 45.5000 1 5 109
1943037S11077 1943 14 SI MM NOT_NAMED 1943-02-14 09:00:00 TS -18.9133 45.6247 main 0 0 _________PP___ -1 99 -19.1925 46.6726 TC 25 -18.9922 45.8666 1 5 108
1943037S11077 1943 14 SI MM NOT_NAMED 1943-02-14 12:00:00 TS -18.9941 45.8829 main 0 0 _________OP___ -1 99 -19.3000 47.0000 TC 25 -19.0854 46.2576 1 5 110
1943037S11077 1943 14 SI MM NOT_NAMED 1943-02-14 15:00:00 TS -19.0858 46.1269 main 0 0 _________PP___ -1 99 -19.4424 47.2650 TC 25 -19.1859 46.6448 1 6 112
1943037S11077 1943 14 SI MM NOT_NAMED 1943-02-14 18:00:00 TS -19.2334 46.5208 main 0 0 _________OO___ -1 99 -19.6000 47.5000 TC 25 -19.3000 47.0000 1 8 113
1943037S11077 1943 14 SI MM NOT_NAMED 1943-02-14 21:00:00 TS -19.3894 46.8946 main 0 0 _________PP___ -1 99 -19.7269 47.6755 TC 25 -19.4056 47.2062 1 9 114
1943037S11077 1943 14 SI MM NOT_NAMED 1943-02-15 00:00:00 TS -19.6035 47.3814 main 0 0 _________OP___ -1 99 -19.9000 48.0000 TC 25 -19.5299 47.3900 1 13 115
1943037S11077 1943 14 SI MM NOT_NAMED 1943-02-15 03:00:00 TS -19.9299 48.1517 main 0 0 _________PP___ -1 99 -20.1704 48.6749 TC 25 -19.6894 47.6286 1 14 115
1943037S11077 1943 14 SI MM NOT_NAMED 1943-02-15 06:00:00 TS -20.2000 48.7500 reunion main 10 0 _________OO___ -1 99 -20.5000 49.5000 TC 25 -19.9000 48.0000 1 14 116
1943037S11077 1943 14 SI MM NOT_NAMED 1943-02-15 09:00:00 TS -20.5155 49.4585 main 89 89 _________PP___ -1 99 -20.8500 50.2799 TC 25 -20.1809 48.6371 1 15 116
1943037S11077 1943 14 SI MM NOT_NAMED 1943-02-15 12:00:00 TS -20.8541 50.2039 main 174 174 _________OP___ -1 99 -21.2000 51.0000 TC 25 -20.5081 49.4078 1 15 116
1943037S11077 1943 14 SI MM NOT_NAMED 1943-02-15 15:00:00 TS -21.1815 50.9027 main 254 254 _________PP___ -1 99 -21.5070 51.5805 TC 25 -20.8559 50.2249 1 14 117
1943037S11077 1943 14 SI MM NOT_NAMED 1943-02-15 18:00:00 TS -21.5000 51.5500 main 334 330 _________OO___ -1 99 -21.8000 52.1000 TC 25 -21.2000 51.0000 1 13 119
1943037S11077 1943 14 SI MM NOT_NAMED 1943-02-15 21:00:00 TS -21.8165 52.1447 main 330 281 _________PP___ -1 99 -22.1150 52.6650 TC 25 -21.5181 51.6245 1 12 120
1943037S11077 1943 14 SI MM NOT_NAMED 1943-02-16 00:00:00 TS -22.1142 52.6954 main 281 249 _________OP___ -1 99 -22.4000 53.2000 TC 25 -21.8284 52.1908 1 11 120
1943037S11077 1943 14 SI MM NOT_NAMED 1943-02-16 03:00:00 TS -22.3659 53.1886 main 249 227 _________PP___ -1 99 -22.6072 53.6654 TC 25 -22.1246 52.7117 1 10 119
1943037S11077 1943 14 SI MM NOT_NAMED 1943-02-16 06:00:00 TS -22.6000 53.6500 reunion main 219 208 _________OO___ -1 99 -22.8000 54.1000 TC 25 -22.4000 53.2000 1 10 119
1943037S11077 1943 14 SI MM NOT_NAMED 1943-02-16 09:00:00 TS -22.8558 54.1303 main 217 206 _________PP___ -1 99 -23.0575 54.5649 TC 25 -22.6541 53.6956 1 10 120
1943037S11077 1943 14 SI MM NOT_NAMED 1943-02-16 12:00:00 TS -23.0934 54.5804 main 213 210 _________OP___ -1 99 -23.3000 55.0000 TC 25 -22.8869 54.1607 1 9 118
1943037S11077 1943 14 SI MM NOT_NAMED 1943-02-16 15:00:00 TS -23.2792 54.9804 main 221 218 _________PP___ -1 99 -23.4573 55.3653 TC 25 -23.1012 54.5954 1 8 117
1943037S11077 1943 14 SI MM NOT_NAMED 1943-02-16 18:00:00 TS -23.4500 55.3500 main 224 234 _________OO___ -1 99 -23.6000 55.7000 TC 25 -23.3000 55.0000 1 8 118
1943037S11077 1943 14 SI MM NOT_NAMED 1943-02-16 21:00:00 TS -23.6443 55.7147 main 246 246 _________PP___ -1 99 -23.7999 56.0500 TC 25 -23.4888 55.3794 1 8 120
1943037S11077 1943 14 SI MM NOT_NAMED 1943-02-17 00:00:00 TS -23.8321 56.0654 main 273 273 _________OP___ -1 99 -24.0000 56.4000 TC 25 -23.6642 55.7309 1 7 119
1943037S11077 1943 14 SI MM NOT_NAMED 1943-02-17 03:00:00 TS -23.9913 56.4085 main 302 302 _________PP___ -1 99 -24.1499 56.7502 TC 25 -23.8326 56.0668 1 7 117
1943037S11077 1943 14 SI MM NOT_NAMED 1943-02-17 06:00:00 TS -24.1500 56.7500 reunion main 325 332 _________OO___ -1 99 -24.3000 57.1000 TC 25 -24.0000 56.4000 1 7 119
1943037S11077 1943 14 SI MM NOT_NAMED 1943-02-17 09:00:00 TS -24.3415 57.1136 main 358 358 _________PP___ -1 99 -24.5000 57.4649 TC 25 -24.1831 56.7622 1 8 121
1943037S11077 1943 14 SI MM NOT_NAMED 1943-02-17 12:00:00 TS -24.5325 57.4612 main 397 397 _________OP___ -1 99 -24.7000 57.8000 TC 25 -24.3650 57.1225 1 7 121
1943037S11077 1943 14 SI MM NOT_NAMED 1943-02-17 15:00:00 TS -24.7021 57.7646 main 431 431 _________PP___ -1 99 -24.8648 58.0576 TC 25 -24.5394 57.4715 1 6 121
1943037S11077 1943 14 SI MM NOT_NAMED 1943-02-17 18:00:00 TS -24.8286 58.0143 main 451 446 _________OO___ -1 99 -25.0000 58.3000 TC 25 -24.7000 57.8000 1 2 117
1943037S11077 1943 14 SI MM NOT_NAMED 1943-02-17 21:00:00 TS -24.7751 57.9279 main 446 446 _________PP___ -1 99 -25.1077 58.5849 TC 25 -24.8426 58.1012 1 1 275
1943037S11077 1943 14 SI MM NOT_NAMED 1943-02-18 00:00:00 TS -24.8177 57.8807 main 446 446 _________OP___ -1 99 -25.2000 58.9000 TC 25 -24.9702 58.3799 1 2 206
1943037S11077 1943 14 SI MM NOT_NAMED 1943-02-18 03:00:00 NR -24.9892 57.8116 main 460 460 __________P___ -1 99 TC -25.0877 58.6436 1 6 167
1943037S11077 1943 14 SI MM NOT_NAMED 1943-02-18 06:00:00 NR -25.3600 58.0200 reunion main 509 509 _____O____O___ -1 -25.4000 57.8000 99 9.90000 -25.2000 58.9000 1 9 155
1943037S11077 1943 14 SI MM NOT_NAMED 1943-02-18 09:00:00 NR -25.8149 58.2336 main 558 558 _____P________ -1 -25.6661 58.0599 99 1 10 149
1943037S11077 1943 14 SI MM NOT_NAMED 1943-02-18 12:00:00 NR -26.1731 58.5648 main 617 617 _____P________ -1 -25.9355 58.2858 99 1 8 142
1943037S11077 1943 14 SI MM NOT_NAMED 1943-02-18 15:00:00 NR -26.4831 58.8075 main 656 656 _____P________ -1 -26.2080 58.4824 99 1 7 148
1943037S11077 1943 14 SI MM NOT_NAMED 1943-02-18 18:00:00 NR -26.7535 58.9760 main 694 694 _____P________ -1 -26.4831 58.6547 99 6 154
1943037S11077 1943 14 SI MM NOT_NAMED 1943-02-18 21:00:00 NR -26.9924 59.0846 main 719 719 _____P________ -1 -26.7604 58.8077 99 5 161
1943037S11077 1943 14 SI MM NOT_NAMED 1943-02-19 00:00:00 NR -27.2079 59.1482 main 738 738 _____P________ -1 -27.0393 58.9462 99 4 168
1943037S11077 1943 14 SI MM NOT_NAMED 1943-02-19 03:00:00 NR -27.4078 59.1817 main 762 762 _____P________ -1 -27.3194 59.0753 99 4 175
1943037S11077 1943 14 SI MM NOT_NAMED 1943-02-19 06:00:00 NR -27.6000 59.2000 reunion main 782 _____O________ -1 -27.6000 59.2000 99 9.90000 4 173

IBTrACS Databaseについて

本データベースは、米国NOAAが公開する1842年以降の世界の熱帯低気圧のベストトラックデータアーカイブInternational Best Track Archive for Climate Stewardship (IBTrACS)を、ウェブで閲覧しやすい形式に変換したものです。

最終更新日:2021-10-19